RJCC/CTS METAR and TAF weather

Enter ICAO airport designator
Station Type Date Time Source
RJCC METAR 2023/10/02 10:00 UTC NOAA

RJCC 021000Z 22007KT 9999 FEW020 BKN050 BKN/// 15/08 Q1007


Station Type Date Time Source
RJCC Decoded METAR 2023/10/02 10:00 UTC NOAA

Chitose Ab, Japan (RJCC) 42-48N 141-40E 30M
Oct 02, 2023 - 06:00 AM EDT / 2023.10.02 1000 UTC
Wind: from the SW (220 degrees) at 8 MPH (7 KT):0
Visibility: greater than 7 mile(s):0
Sky conditions: mostly cloudy
Temperature: 59 F (15 C)
Dew Point: 46 F (8 C)
Relative Humidity: 62%
Pressure (altimeter): 29.74 in. Hg (1007 hPa)
ob: RJCC 021000Z 22007KT 9999 FEW020 BKN050 BKN/// 15/08 Q1007
cycle: 10

Station Type Date Time Source
RJCC TAF 2023/10/02 06:30 UTC NOAA

TAF RJCC 020505Z 0206/0312 29012KT 9999 FEW015 BKN030
BECMG 0207/0209 22006KT
TEMPO 0212/0218 FEW008 BKN025 FEW025CB
BECMG 0221/0300 32012KT

Example: see airport list